Time;durP1;ratioP1;P1;durP2;ratioP2;P2;SDS_P1;SDS_P2;PMS_P1;PMS_P2;Temp;Humidity;BMP_temperature;BMP_pressure;BME280_temperature;BME280_humidity;BME280_pressure;Samples;Min_cycle;Max_cycle;Signal;HPM_P1;HPM_P2
2022/01/18 00:01:57;;;;;;;19.88;10.52;;;;;;;;;;5041118;28;20874;-73
2022/01/18 00:04:24;;;;;;;18.15;11.23;;;;;;;;;;5040147;28;20057;-72
2022/01/18 00:06:52;;;;;;;18.40;11.20;;;;;;;;;;5042481;28;20089;-71
2022/01/18 00:09:23;;;;;;;20.52;11.25;;;;;;;;;;5042100;28;20529;-71
2022/01/18 00:12:14;;;;;;;17.00;10.27;;;;;;;;;;5042230;28;20608;-70
2022/01/18 00:14:43;;;;;;;17.05;10.07;;;;;;;;;;5038851;28;20468;-68
2022/01/18 00:17:18;;;;;;;17.85;11.18;;;;;;;;;;5041861;28;20052;-73
2022/01/18 00:19:54;;;;;;;;;;;;;;;;;;5041593;28;20055;-71
2022/01/18 00:22:22;;;;;;;17.77;10.02;;;;;;;;;;5044512;28;19928;-74
2022/01/18 00:24:50;;;;;;;29.45;9.88;;;;;;;;;;5038933;28;20064;-68
2022/01/18 00:27:17;;;;;;;22.23;11.18;;;;;;;;;;5040671;28;20191;-73
2022/01/18 00:30:25;;;;;;;19.15;9.77;;;;;;;;;;5039252;28;20057;-66
2022/01/18 00:35:21;;;;;;;19.08;9.68;;;;;;;;;;5042072;28;20135;-71
2022/01/18 00:37:53;;;;;;;15.68;9.05;;;;;;;;;;5041232;28;20051;-66
2022/01/18 00:40:19;;;;;;;13.85;8.75;;;;;;;;;;5040243;28;20086;-67
2022/01/18 00:42:45;;;;;;;14.55;9.13;;;;;;;;;;5036971;28;20163;-67
2022/01/18 00:45:12;;;;;;;13.32;8.52;;;;;;;;;;5040680;28;20079;-75
2022/01/18 00:47:38;;;;;;;15.60;8.20;;;;;;;;;;5041346;28;20091;-72
2022/01/18 00:50:05;;;;;;;12.55;8.43;;;;;;;;;;5040709;28;20060;-73
2022/01/18 00:52:35;;;;;;;15.73;8.85;;;;;;;;;;5042102;28;20257;-74
2022/01/18 00:55:03;;;;;;;13.63;8.52;;;;;;;;;;5023814;28;20079;-71
2022/01/18 00:57:29;;;;;;;15.55;9.10;;;;;;;;;;5040999;28;20473;-71
2022/01/18 00:59:55;;;;;;;14.80;8.18;;;;;;;;;;5042306;28;20059;-70
2022/01/18 01:02:21;;;;;;;14.23;8.55;;;;;;;;;;5041409;28;20059;-70
2022/01/18 01:04:49;;;;;;;14.82;8.55;;;;;;;;;;5037639;28;20060;-71
2022/01/18 01:07:22;;;;;;;15.00;7.75;;;;;;;;;;5042293;28;20056;-68
2022/01/18 01:09:49;;;;;;;18.42;8.60;;;;;;;;;;5040519;28;20139;-72
2022/01/18 01:12:19;;;;;;;14.07;8.27;;;;;;;;;;5042140;28;20078;-71
2022/01/18 01:14:47;;;;;;;12.13;7.55;;;;;;;;;;5038420;28;20152;-66
2022/01/18 01:36:30;;;;;;;;;;;;;;;;;;5043549;28;20423;-73
2022/01/18 01:42:06;;;;;;;12.82;6.68;;;;;;;;;;5002939;28;20053;-72
2022/01/18 01:44:45;;;;;;;12.23;7.15;;;;;;;;;;5017265;28;20060;-73
2022/01/18 01:47:19;;;;;;;12.98;6.10;;;;;;;;;;5002084;28;20510;-75
2022/01/18 01:49:49;;;;;;;10.70;6.00;;;;;;;;;;5015635;28;20049;-67
2022/01/18 01:52:19;;;;;;;12.27;6.72;;;;;;;;;;5018527;28;20092;-67
2022/01/18 01:54:45;;;;;;;10.00;5.65;;;;;;;;;;5015573;28;20215;-72
2022/01/18 01:57:12;;;;;;;9.80;6.15;;;;;;;;;;5017937;28;20049;-70
2022/01/18 01:59:40;;;;;;;9.15;5.57;;;;;;;;;;5017006;28;20041;-74
2022/01/18 02:02:06;;;;;;;10.85;5.70;;;;;;;;;;5001506;28;20131;-76
2022/01/18 02:04:33;;;;;;;12.90;5.20;;;;;;;;;;5013486;28;20053;-77
2022/01/18 02:06:59;;;;;;;10.07;5.18;;;;;;;;;;5018561;28;20049;-73
2022/01/18 02:09:25;;;;;;;10.15;5.20;;;;;;;;;;4984288;28;20187;-69
2022/01/18 02:11:55;;;;;;;9.65;5.32;;;;;;;;;;5003029;28;20059;-71
2022/01/18 02:14:24;;;;;;;9.60;4.85;;;;;;;;;;4998128;28;20059;-69
2022/01/18 02:22:20;;;;;;;8.88;4.90;;;;;;;;;;5043130;28;20027;-69
2022/01/18 02:24:46;;;;;;;9.23;5.00;;;;;;;;;;5039855;28;21050;-66
2022/01/18 02:27:13;;;;;;;8.52;5.68;;;;;;;;;;5042963;28;20413;-69
2022/01/18 02:29:40;;;;;;;9.63;5.60;;;;;;;;;;5043867;28;20193;-73
2022/01/18 02:32:07;;;;;;;10.73;5.57;;;;;;;;;;5042648;28;20064;-76
2022/01/18 02:34:34;;;;;;;8.45;5.28;;;;;;;;;;5043325;28;20064;-73
2022/01/18 02:37:03;;;;;;;7.65;5.60;;;;;;;;;;5044040;28;20117;-72
2022/01/18 02:39:30;;;;;;;12.90;5.95;;;;;;;;;;5024547;28;20099;-74
2022/01/18 02:41:59;;;;;;;13.73;5.95;;;;;;;;;;5028757;28;20084;-73
2022/01/18 02:44:27;;;;;;;10.43;5.90;;;;;;;;;;5044001;28;20102;-74
2022/01/18 02:46:53;;;;;;;9.82;5.55;;;;;;;;;;5026913;28;20805;-69
2022/01/18 02:49:20;;;;;;;11.82;6.15;;;;;;;;;;5045938;28;20142;-73
2022/01/18 02:51:46;;;;;;;9.60;5.80;;;;;;;;;;5041173;28;20049;-70
2022/01/18 02:54:15;;;;;;;10.55;6.40;;;;;;;;;;5040412;28;20056;-71
2022/01/18 02:56:48;;;;;;;13.20;6.90;;;;;;;;;;5042375;28;20049;-72
2022/01/18 02:59:30;;;;;;;11.85;6.97;;;;;;;;;;5043597;28;20437;-68
2022/01/18 03:04:44;;;;;;;11.80;7.32;;;;;;;;;;5040885;28;20052;-73
2022/01/18 03:07:11;;;;;;;11.15;7.03;;;;;;;;;;5042922;28;20063;-70
2022/01/18 03:09:37;;;;;;;12.93;7.93;;;;;;;;;;5039613;28;20048;-72
2022/01/18 03:12:05;;;;;;;13.85;7.70;;;;;;;;;;5042802;28;20052;-73
2022/01/18 03:14:31;;;;;;;12.55;7.82;;;;;;;;;;5024249;28;20045;-73
2022/01/18 03:16:57;;;;;;;16.27;7.53;;;;;;;;;;5026947;28;20056;-71
2022/01/18 03:19:24;;;;;;;13.20;7.50;;;;;;;;;;5042801;28;20076;-75
2022/01/18 03:21:51;;;;;;;13.80;7.18;;;;;;;;;;5043061;28;20083;-75
2022/01/18 03:29:37;;;;;;;15.73;7.55;;;;;;;;;;5042722;28;20048;-68
2022/01/18 03:32:04;;;;;;;15.73;7.45;;;;;;;;;;5043277;28;20045;-75
2022/01/18 03:34:30;;;;;;;14.32;7.20;;;;;;;;;;5041003;28;20135;-75
2022/01/18 03:36:57;;;;;;;12.98;6.88;;;;;;;;;;5044134;28;20492;-75
2022/01/18 03:39:23;;;;;;;10.68;7.00;;;;;;;;;;5025425;28;21041;-71
2022/01/18 03:41:54;;;;;;;12.48;6.70;;;;;;;;;;5041529;28;20057;-66
2022/01/18 03:44:23;;;;;;;14.07;6.93;;;;;;;;;;5023039;28;20055;-69
2022/01/18 03:46:50;;;;;;;13.77;6.70;;;;;;;;;;5044217;28;20771;-76
2022/01/18 03:49:19;;;;;;;10.20;6.38;;;;;;;;;;5043354;28;20595;-72
2022/01/18 03:51:45;;;;;;;11.48;6.25;;;;;;;;;;5042620;28;20550;-67
2022/01/18 03:54:14;;;;;;;14.88;6.35;;;;;;;;;;5042330;28;20164;-71
2022/01/18 03:56:40;;;;;;;10.00;6.07;;;;;;;;;;5024974;28;20036;-68
2022/01/18 03:59:06;;;;;;;10.50;5.82;;;;;;;;;;5041419;28;20048;-72
2022/01/18 04:01:32;;;;;;;11.18;5.88;;;;;;;;;;5042771;28;20501;-72
2022/01/18 04:03:59;;;;;;;8.88;5.68;;;;;;;;;;5040154;28;20049;-76
2022/01/18 04:06:27;;;;;;;9.32;5.07;;;;;;;;;;5043385;28;20048;-73
2022/01/18 04:08:53;;;;;;;6.82;5.03;;;;;;;;;;5042454;28;20057;-74
2022/01/18 04:11:19;;;;;;;10.88;5.40;;;;;;;;;;5042093;28;20532;-66
2022/01/18 04:13:45;;;;;;;10.18;5.13;;;;;;;;;;5039758;28;20143;-66
2022/01/18 04:16:12;;;;;;;16.20;5.90;;;;;;;;;;5043337;28;20048;-72
2022/01/18 04:19:20;;;;;;;12.43;5.63;;;;;;;;;;5043679;28;20056;-75
2022/01/18 04:26:57;;;;;;;9.15;5.55;;;;;;;;;;5041936;28;20401;-78
2022/01/18 04:29:24;;;;;;;10.05;5.57;;;;;;;;;;5040669;28;20048;-75
2022/01/18 04:31:51;;;;;;;10.07;5.95;;;;;;;;;;5039800;28;20072;-70
2022/01/18 04:34:17;;;;;;;11.60;5.45;;;;;;;;;;5039377;28;20056;-69
2022/01/18 04:36:45;;;;;;;8.38;5.85;;;;;;;;;;5042729;28;20070;-75
2022/01/18 04:39:11;;;;;;;10.32;5.65;;;;;;;;;;5041257;28;20056;-71
2022/01/18 04:41:38;;;;;;;8.95;5.72;;;;;;;;;;5041701;28;20053;-75
2022/01/18 04:44:17;;;;;;;9.73;5.82;;;;;;;;;;5038925;28;20060;-73
2022/01/18 04:49:27;;;;;;;10.20;6.70;;;;;;;;;;5039913;28;20171;-73
2022/01/18 04:51:54;;;;;;;12.38;6.38;;;;;;;;;;5043580;28;20258;-71
2022/01/18 04:54:22;;;;;;;13.18;6.00;;;;;;;;;;5040087;28;20060;-67
2022/01/18 04:59:16;;;;;;;16.83;6.43;;;;;;;;;;5041626;28;20300;-66
2022/01/18 05:01:45;;;;;;;11.75;6.25;;;;;;;;;;5022196;28;20057;-67
2022/01/18 05:04:11;;;;;;;11.43;6.28;;;;;;;;;;5036794;28;20104;-70
2022/01/18 05:06:38;;;;;;;13.75;6.30;;;;;;;;;;5039718;28;20056;-72
2022/01/18 05:09:08;;;;;;;11.05;5.75;;;;;;;;;;5037336;28;20083;-75
2022/01/18 05:11:42;;;;;;;12.13;6.25;;;;;;;;;;5040070;28;20055;-74
2022/01/18 05:19:15;;;;;;;10.18;6.30;;;;;;;;;;5038016;28;20563;-70
2022/01/18 05:24:21;;;;;;;11.18;6.00;;;;;;;;;;5040275;28;20049;-65
2022/01/18 05:26:48;;;;;;;11.30;6.07;;;;;;;;;;5040699;28;20062;-72
2022/01/18 05:29:15;;;;;;;10.02;5.57;;;;;;;;;;5020795;28;20236;-72
2022/01/18 05:31:42;;;;;;;11.95;5.80;;;;;;;;;;5040063;28;20040;-66
2022/01/18 05:34:08;;;;;;;12.05;6.25;;;;;;;;;;5019447;28;20129;-76
2022/01/18 05:36:35;;;;;;;15.70;6.18;;;;;;;;;;5041263;28;20059;-74
2022/01/18 05:39:02;;;;;;;14.48;5.82;;;;;;;;;;5040411;28;20044;-73
2022/01/18 05:41:29;;;;;;;11.57;5.60;;;;;;;;;;5041433;28;20056;-70
2022/01/18 05:43:56;;;;;;;11.52;6.03;;;;;;;;;;5039198;28;20114;-75
2022/01/18 05:46:24;;;;;;;11.15;5.93;;;;;;;;;;5038926;28;20210;-77
2022/01/18 05:48:50;;;;;;;11.98;6.40;;;;;;;;;;5038977;28;20056;-68
2022/01/18 05:51:17;;;;;;;12.73;6.32;;;;;;;;;;5036615;28;20155;-67
2022/01/18 05:53:43;;;;;;;11.75;5.93;;;;;;;;;;5038543;28;20049;-66
2022/01/18 05:56:11;;;;;;;13.82;5.85;;;;;;;;;;5039100;28;20551;-70
2022/01/18 05:58:44;;;;;;;15.20;5.97;;;;;;;;;;5037060;28;20126;-71
2022/01/18 06:01:21;;;;;;;13.38;7.03;;;;;;;;;;5040590;28;20048;-67
2022/01/18 06:09:05;;;;;;;14.15;6.00;;;;;;;;;;5046031;28;20040;-77
2022/01/18 06:11:31;;;;;;;9.88;6.32;;;;;;;;;;5045557;28;20351;-73
2022/01/18 06:13:59;;;;;;;13.85;6.05;;;;;;;;;;5044522;28;20053;-71
2022/01/18 06:16:26;;;;;;;12.35;6.22;;;;;;;;;;5047172;28;20118;-73
2022/01/18 06:18:53;;;;;;;15.40;6.60;;;;;;;;;;5041851;28;20064;-71
2022/01/18 06:21:21;;;;;;;15.77;6.53;;;;;;;;;;5044895;28;20379;-73
2022/01/18 06:23:47;;;;;;;12.35;6.43;;;;;;;;;;5041351;28;20068;-73
2022/01/18 06:26:15;;;;;;;13.13;7.10;;;;;;;;;;5046542;28;20060;-67
2022/01/18 06:28:45;;;;;;;13.23;6.63;;;;;;;;;;5044670;28;20147;-71
2022/01/18 06:31:12;;;;;;;13.20;6.60;;;;;;;;;;5045675;28;20052;-67
2022/01/18 06:33:39;;;;;;;12.70;6.82;;;;;;;;;;5039426;28;20501;-73
2022/01/18 06:36:06;;;;;;;16.63;7.68;;;;;;;;;;5045395;28;20068;-74
2022/01/18 06:38:32;;;;;;;16.05;8.18;;;;;;;;;;5046531;28;20049;-77
2022/01/18 06:40:59;;;;;;;20.58;7.13;;;;;;;;;;5045433;28;20095;-76
2022/01/18 06:43:25;;;;;;;10.50;6.10;;;;;;;;;;5042372;28;20595;-75
2022/01/18 06:45:52;;;;;;;20.60;6.60;;;;;;;;;;5046419;28;21215;-67
2022/01/18 06:48:18;;;;;;;13.82;7.03;;;;;;;;;;5027008;28;20056;-78
2022/01/18 06:50:45;;;;;;;10.82;6.03;;;;;;;;;;5043532;28;20056;-71
2022/01/18 06:53:11;;;;;;;15.40;6.65;;;;;;;;;;5039431;28;20064;-74
2022/01/18 06:55:37;;;;;;;14.65;7.00;;;;;;;;;;5041511;28;20052;-73
2022/01/18 06:58:03;;;;;;;16.08;6.88;;;;;;;;;;5046226;28;20397;-78
2022/01/18 07:00:30;;;;;;;20.00;7.55;;;;;;;;;;5047731;28;20379;-76
2022/01/18 07:02:57;;;;;;;18.90;7.80;;;;;;;;;;5027736;28;20052;-80
2022/01/18 07:05:23;;;;;;;18.55;7.85;;;;;;;;;;5043147;28;20060;-77
2022/01/18 07:07:50;;;;;;;28.85;8.75;;;;;;;;;;5044619;28;20048;-73
2022/01/18 07:10:16;;;;;;;14.52;8.75;;;;;;;;;;5041422;28;20510;-77
2022/01/18 07:12:42;;;;;;;21.70;9.52;;;;;;;;;;5042622;28;20052;-77
2022/01/18 07:15:09;;;;;;;24.90;7.72;;;;;;;;;;5042474;28;20040;-76
2022/01/18 07:17:40;;;;;;;21.02;8.65;;;;;;;;;;5044181;28;20119;-74
2022/01/18 07:20:08;;;;;;;19.92;8.18;;;;;;;;;;5043837;28;20151;-81
2022/01/18 07:22:34;;;;;;;19.52;8.88;;;;;;;;;;5044755;28;20048;-81
2022/01/18 07:25:02;;;;;;;18.15;9.52;;;;;;;;;;5044104;28;20041;-76
2022/01/18 07:27:29;;;;;;;20.85;8.98;;;;;;;;;;5026658;28;20420;-69
2022/01/18 07:29:55;;;;;;;22.20;9.20;;;;;;;;;;5042804;28;20071;-79
2022/01/18 07:32:21;;;;;;;15.60;8.20;;;;;;;;;;5045968;28;20418;-70
2022/01/18 07:34:55;;;;;;;20.60;8.45;;;;;;;;;;5043456;28;20062;-73
2022/01/18 07:37:23;;;;;;;;;;;;;;;;;;5047523;28;20153;-76
2022/01/18 07:39:51;;;;;;;16.27;7.97;;;;;;;;;;5045540;28;20412;-72
2022/01/18 07:42:19;;;;;;;19.50;8.23;;;;;;;;;;5038892;28;20086;-78
2022/01/18 07:44:46;;;;;;;19.92;8.00;;;;;;;;;;5045741;28;20128;-70
2022/01/18 07:47:12;;;;;;;23.52;7.95;;;;;;;;;;5029246;28;20558;-78
2022/01/18 07:49:39;;;;;;;15.73;7.63;;;;;;;;;;5051428;28;20056;-83
2022/01/18 07:52:05;;;;;;;19.98;7.70;;;;;;;;;;5054964;28;20037;-81
2022/01/18 07:54:31;;;;;;;13.85;7.85;;;;;;;;;;5056285;28;20064;-80
2022/01/18 07:56:58;;;;;;;17.70;6.78;;;;;;;;;;5057076;28;20078;-74
2022/01/18 07:59:27;;;;;;;15.00;6.60;;;;;;;;;;5056707;28;20130;-69
2022/01/18 08:01:56;;;;;;;13.68;6.68;;;;;;;;;;5037741;28;20222;-81
2022/01/18 08:04:23;;;;;;;14.98;6.47;;;;;;;;;;5050038;28;20052;-78
2022/01/18 08:06:49;;;;;;;14.95;7.30;;;;;;;;;;5052990;28;20098;-69
2022/01/18 08:09:18;;;;;;;19.67;7.20;;;;;;;;;;5052555;28;20354;-74
2022/01/18 08:11:46;;;;;;;21.63;7.38;;;;;;;;;;5050799;28;20553;-83
2022/01/18 08:14:13;;;;;;;17.50;7.10;;;;;;;;;;5050122;28;20126;-80
2022/01/18 08:17:00;;;;;;;12.98;6.85;;;;;;;;;;5051639;28;20171;-72
2022/01/18 08:19:34;;;;;;;13.80;7.03;;;;;;;;;;5037657;28;20902;-78
2022/01/18 08:22:00;;;;;;;18.73;6.95;;;;;;;;;;5054461;28;20057;-78
2022/01/18 08:24:27;;;;;;;17.40;6.95;;;;;;;;;;5032765;28;20148;-78
2022/01/18 08:26:54;;;;;;;14.35;6.95;;;;;;;;;;5049574;28;20075;-81
2022/01/18 08:29:21;;;;;;;12.43;6.78;;;;;;;;;;5052394;28;20144;-68
2022/01/18 08:31:47;;;;;;;14.32;7.07;;;;;;;;;;5049294;28;21160;-71
2022/01/18 08:34:14;;;;;;;10.63;5.78;;;;;;;;;;5045320;28;20436;-72
2022/01/18 08:36:41;;;;;;;15.52;6.50;;;;;;;;;;5049596;28;20049;-70
2022/01/18 08:39:08;;;;;;;21.63;6.57;;;;;;;;;;5054891;28;20327;-74
2022/01/18 08:41:35;;;;;;;15.70;7.43;;;;;;;;;;5048875;28;20060;-78
2022/01/18 08:44:01;;;;;;;17.58;6.65;;;;;;;;;;5050755;28;20086;-81
2022/01/18 08:46:28;;;;;;;13.32;6.93;;;;;;;;;;5050462;28;20112;-74
2022/01/18 08:48:55;;;;;;;14.65;6.47;;;;;;;;;;5050147;28;20434;-71
2022/01/18 08:51:21;;;;;;;19.00;6.50;;;;;;;;;;5051283;28;20683;-80
2022/01/18 08:53:50;;;;;;;17.83;7.10;;;;;;;;;;5031482;28;20135;-76
2022/01/18 08:56:18;;;;;;;13.15;6.75;;;;;;;;;;5051419;28;20052;-78
2022/01/18 08:58:45;;;;;;;16.08;7.03;;;;;;;;;;5052813;28;20052;-70
2022/01/18 09:01:12;;;;;;;22.85;6.90;;;;;;;;;;5051366;28;20041;-73
2022/01/18 09:03:38;;;;;;;18.48;7.38;;;;;;;;;;5050502;28;20036;-74
2022/01/18 09:06:06;;;;;;;29.10;8.05;;;;;;;;;;5051994;28;20064;-79
2022/01/18 09:08:36;;;;;;;22.40;8.20;;;;;;;;;;5036005;28;20052;-76
2022/01/18 09:11:03;;;;;;;26.13;10.00;;;;;;;;;;5034311;28;20040;-80
2022/01/18 09:13:31;;;;;;;27.52;10.10;;;;;;;;;;5033674;28;20175;-77
2022/01/18 09:15:57;;;;;;;27.30;10.68;;;;;;;;;;5051632;28;20221;-79
2022/01/18 09:18:23;;;;;;;26.83;11.60;;;;;;;;;;5053515;28;20076;-69
2022/01/18 09:20:51;;;;;;;28.58;12.45;;;;;;;;;;5053235;28;20342;-69
2022/01/18 09:23:17;;;;;;;23.80;11.40;;;;;;;;;;5052181;28;20523;-80
2022/01/18 09:25:44;;;;;;;26.70;10.48;;;;;;;;;;5052983;28;20759;-70
2022/01/18 09:28:11;;;;;;;23.27;9.80;;;;;;;;;;5055829;28;20072;-72
2022/01/18 09:30:38;;;;;;;26.95;10.55;;;;;;;;;;5055067;28;20533;-76
2022/01/18 09:33:06;;;;;;;18.33;8.48;;;;;;;;;;5054271;28;20099;-80
2022/01/18 09:35:37;;;;;;;15.10;7.28;;;;;;;;;;5054379;28;20171;-86
2022/01/18 09:38:04;;;;;;;22.27;6.57;;;;;;;;;;5052135;28;20059;-73
2022/01/18 09:40:31;;;;;;;12.25;6.38;;;;;;;;;;5052569;28;20049;-84
2022/01/18 09:43:00;;;;;;;18.35;6.95;;;;;;;;;;5035166;28;20079;-74
2022/01/18 09:45:29;;;;;;;15.52;6.72;;;;;;;;;;5054053;28;20148;-77
2022/01/18 09:47:57;;;;;;;12.75;6.00;;;;;;;;;;5052868;28;20529;-73
2022/01/18 09:50:29;;;;;;;16.85;6.70;;;;;;;;;;5037071;28;20066;-74
2022/01/18 09:52:58;;;;;;;16.50;5.57;;;;;;;;;;5052977;28;20143;-73
2022/01/18 09:55:26;;;;;;;12.13;5.18;;;;;;;;;;5036348;28;20052;-74
2022/01/18 09:57:54;;;;;;;13.00;5.85;;;;;;;;;;5056699;28;20048;-70
2022/01/18 10:00:23;;;;;;;10.40;5.63;;;;;;;;;;5058588;28;20102;-70
2022/01/18 10:02:49;;;;;;;14.10;5.60;;;;;;;;;;5056697;28;20052;-71
2022/01/18 10:05:31;;;;;;;13.95;5.80;;;;;;;;;;5054690;28;20052;-77
2022/01/18 10:08:09;;;;;;;22.00;6.38;;;;;;;;;;5053819;28;20056;-75
2022/01/18 10:10:46;;;;;;;19.60;6.38;;;;;;;;;;5057505;28;20052;-76
2022/01/18 10:13:24;;;;;;;14.27;7.05;;;;;;;;;;5050878;28;20067;-78
2022/01/18 10:16:16;;;;;;;14.30;6.65;;;;;;;;;;5051467;28;20048;-72
2022/01/18 10:18:48;;;;;;;16.17;6.93;;;;;;;;;;5050974;28;20060;-69
2022/01/18 10:21:28;;;;;;;12.85;6.20;;;;;;;;;;5052862;28;20064;-80
2022/01/18 10:24:24;;;;;;;22.05;6.55;;;;;;;;;;5051148;28;20128;-81
2022/01/18 10:26:53;;;;;;;11.40;5.97;;;;;;;;;;5053730;28;20053;-79
2022/01/18 10:29:26;;;;;;;11.93;6.57;;;;;;;;;;5053603;28;20168;-71
2022/01/18 10:34:25;;;;;;;15.50;6.60;;;;;;;;;;5052074;28;20486;-68
2022/01/18 10:37:05;;;;;;;12.98;6.32;;;;;;;;;;5050940;28;20045;-72
2022/01/18 10:39:34;;;;;;;14.90;6.90;;;;;;;;;;5049934;28;20143;-81
2022/01/18 10:42:28;;;;;;;23.30;6.72;;;;;;;;;;5053194;28;20575;-79
2022/01/18 10:45:33;;;;;;;12.70;5.88;;;;;;;;;;5038020;28;20660;-72
2022/01/18 10:48:13;;;;;;;12.00;5.65;;;;;;;;;;5050269;28;20459;-85
2022/01/18 10:50:44;;;;;;;19.77;6.55;;;;;;;;;;5055076;28;20112;-79
2022/01/18 10:53:13;;;;;;;14.43;5.80;;;;;;;;;;5038056;28;20055;-70
2022/01/18 10:55:40;;;;;;;9.35;5.68;;;;;;;;;;5058420;28;20072;-80
2022/01/18 10:58:18;;;;;;;11.43;5.88;;;;;;;;;;5058433;28;20533;-88
2022/01/18 11:00:45;;;;;;;13.20;6.68;;;;;;;;;;5055407;28;20048;-69
2022/01/18 11:03:11;;;;;;;14.50;5.93;;;;;;;;;;5053689;28;20430;-83
2022/01/18 11:05:46;;;;;;;15.77;6.03;;;;;;;;;;5061464;28;20052;-74
2022/01/18 11:08:16;;;;;;;11.90;6.38;;;;;;;;;;5060653;28;20101;-71
2022/01/18 11:10:48;;;;;;;18.55;6.85;;;;;;;;;;5056173;28;20052;-71
2022/01/18 11:13:22;;;;;;;19.17;6.75;;;;;;;;;;5057050;28;20374;-74
2022/01/18 11:15:52;;;;;;;13.20;6.00;;;;;;;;;;5058285;28;20053;-69
2022/01/18 11:18:29;;;;;;;21.70;6.13;;;;;;;;;;5058146;28;20137;-69
2022/01/18 11:20:57;;;;;;;12.25;5.50;;;;;;;;;;5058391;28;20060;-78
2022/01/18 11:23:24;;;;;;;13.75;5.70;;;;;;;;;;5057297;28;20056;-74
2022/01/18 11:25:52;;;;;;;13.13;5.85;;;;;;;;;;5059835;28;20052;-84
2022/01/18 11:28:18;;;;;;;11.77;5.85;;;;;;;;;;5054498;28;20061;-79
2022/01/18 11:30:47;;;;;;;14.50;5.40;;;;;;;;;;5056903;28;20052;-68
2022/01/18 11:33:15;;;;;;;10.02;5.38;;;;;;;;;;5055404;28;20156;-70
2022/01/18 11:35:54;;;;;;;15.73;5.78;;;;;;;;;;5058207;28;20403;-70
2022/01/18 11:38:51;;;;;;;16.23;5.60;;;;;;;;;;5058170;28;20147;-85
2022/01/18 11:41:27;;;;;;;10.75;6.00;;;;;;;;;;5059503;28;20098;-72
2022/01/18 11:43:56;;;;;;;11.85;5.68;;;;;;;;;;5054720;28;20079;-77
2022/01/18 11:46:22;;;;;;;17.10;5.60;;;;;;;;;;5057167;28;20060;-81
2022/01/18 11:49:03;;;;;;;11.40;5.22;;;;;;;;;;5058369;28;20482;-69
2022/01/18 11:51:39;;;;;;;17.23;6.30;;;;;;;;;;5058136;28;20056;-77
2022/01/18 11:57:23;;;;;;;13.35;6.13;;;;;;;;;;5055770;28;20122;-74
2022/01/18 12:00:08;;;;;;;15.77;5.63;;;;;;;;;;5056883;28;20318;-76
2022/01/18 12:02:43;;;;;;;;;;;;;;;;;;5057272;28;20257;-82
2022/01/18 12:05:17;;;;;;;10.95;6.05;;;;;;;;;;5054922;28;21195;-81
2022/01/18 12:07:44;;;;;;;15.83;6.00;;;;;;;;;;5054514;28;20120;-71
2022/01/18 12:10:32;;;;;;;12.30;6.28;;;;;;;;;;5057943;28;20423;-74
2022/01/18 12:13:05;;;;;;;19.00;6.22;;;;;;;;;;5055047;28;20911;-73
2022/01/18 12:15:36;;;;;;;14.98;7.07;;;;;;;;;;5056839;28;20048;-81
2022/01/18 12:18:10;;;;;;;15.20;6.32;;;;;;;;;;5043615;28;20140;-72
2022/01/18 12:20:40;;;;;;;12.77;5.68;;;;;;;;;;5058548;28;20047;-83
2022/01/18 12:23:12;;;;;;;15.25;6.35;;;;;;;;;;5040871;28;20040;-82
2022/01/18 12:26:01;;;;;;;21.80;5.53;;;;;;;;;;5058362;28;20591;-77
2022/01/18 12:28:35;;;;;;;14.38;5.43;;;;;;;;;;5057157;28;20157;-81
2022/01/18 12:31:17;;;;;;;10.90;5.63;;;;;;;;;;5059395;28;20056;-87
2022/01/18 12:33:44;;;;;;;9.35;5.00;;;;;;;;;;5056032;28;20747;-79
2022/01/18 12:36:31;;;;;;;8.77;5.50;;;;;;;;;;5040042;28;20417;-75
2022/01/18 12:39:03;;;;;;;8.00;4.47;;;;;;;;;;5058231;28;20052;-72
2022/01/18 12:41:58;;;;;;;10.30;4.80;;;;;;;;;;5043134;28;20083;-73
2022/01/18 12:44:24;;;;;;;10.98;4.53;;;;;;;;;;5041310;28;20185;-72
2022/01/18 12:46:59;;;;;;;10.98;4.57;;;;;;;;;;5058146;28;20429;-75
2022/01/18 12:49:27;;;;;;;10.02;4.70;;;;;;;;;;5059668;28;20056;-76
2022/01/18 12:51:55;;;;;;;19.92;6.75;;;;;;;;;;5058591;28;20052;-71
2022/01/18 12:54:39;;;;;;;15.75;7.07;;;;;;;;;;5057842;28;20143;-72
2022/01/18 12:57:21;;;;;;;13.07;5.80;;;;;;;;;;5059703;28;20428;-80
2022/01/18 13:00:14;;;;;;;13.32;6.60;;;;;;;;;;5060874;28;20122;-73
2022/01/18 13:02:46;;;;;;;11.50;6.05;;;;;;;;;;5039753;28;20040;-77
2022/01/18 13:05:12;;;;;;;15.45;6.47;;;;;;;;;;5056771;28;20056;-83
2022/01/18 13:07:53;;;;;;;13.75;6.63;;;;;;;;;;5037882;28;20054;-79
2022/01/18 13:10:34;;;;;;;12.57;6.20;;;;;;;;;;5056466;28;20488;-76
2022/01/18 13:13:00;;;;;;;11.85;5.70;;;;;;;;;;5055361;28;20052;-79
2022/01/18 13:16:06;;;;;;;11.88;6.68;;;;;;;;;;5056887;28;20083;-82
2022/01/18 13:27:02;;;;;;;17.38;7.03;;;;;;;;;;5056656;28;20078;-72
2022/01/18 13:29:31;;;;;;;11.40;6.32;;;;;;;;;;5060286;28;20082;-76
2022/01/18 13:32:09;;;;;;;10.57;5.95;;;;;;;;;;5056836;28;20144;-83
2022/01/18 13:34:40;;;;;;;11.70;5.55;;;;;;;;;;5056920;28;20316;-76
2022/01/18 13:37:09;;;;;;;8.75;4.88;;;;;;;;;;5060621;28;20057;-83
2022/01/18 13:39:45;;;;;;;10.77;4.50;;;;;;;;;;5057174;28;20414;-80
2022/01/18 13:42:14;;;;;;;7.85;4.72;;;;;;;;;;5044855;28;20520;-78
2022/01/18 13:45:19;;;;;;;11.55;6.47;;;;;;;;;;5059462;28;20127;-74
2022/01/18 13:48:00;;;;;;;12.05;5.50;;;;;;;;;;5062173;28;20137;-73
2022/01/18 13:50:44;;;;;;;8.73;4.57;;;;;;;;;;5058485;28;20106;-78
2022/01/18 13:53:26;;;;;;;9.40;5.10;;;;;;;;;;5036953;28;20125;-86
2022/01/18 13:55:54;;;;;;;8.07;5.07;;;;;;;;;;5055599;28;20056;-73
2022/01/18 13:58:23;;;;;;;12.90;6.35;;;;;;;;;;5051703;28;20044;-78
2022/01/18 14:00:50;;;;;;;13.68;6.57;;;;;;;;;;5056788;28;20505;-76
2022/01/18 14:03:43;;;;;;;13.65;6.53;;;;;;;;;;5051098;28;20461;-84
2022/01/18 14:06:11;;;;;;;9.70;5.20;;;;;;;;;;5058656;28;20502;-76
2022/01/18 14:08:58;;;;;;;17.13;8.55;;;;;;;;;;5055858;28;20037;-76
2022/01/18 14:11:26;;;;;;;10.10;5.78;;;;;;;;;;5056276;28;20059;-83
2022/01/18 14:13:54;;;;;;;8.40;4.93;;;;;;;;;;5053672;28;20114;-71
2022/01/18 14:16:25;;;;;;;11.90;5.88;;;;;;;;;;5035780;28;20053;-78
2022/01/18 14:18:51;;;;;;;8.95;5.35;;;;;;;;;;5053243;28;20208;-81
2022/01/18 14:21:28;;;;;;;11.45;5.38;;;;;;;;;;5037714;28;20221;-77
2022/01/18 14:24:20;;;;;;;13.52;6.13;;;;;;;;;;5055296;28;20097;-72
2022/01/18 14:26:53;;;;;;;10.77;6.05;;;;;;;;;;5056965;28;20091;-74
2022/01/18 14:29:28;;;;;;;7.75;5.13;;;;;;;;;;5061893;28;20494;-73
2022/01/18 14:32:03;;;;;;;9.30;5.38;;;;;;;;;;5063940;28;20045;-88
2022/01/18 14:34:42;;;;;;;8.80;5.32;;;;;;;;;;5043054;28;20052;-79
2022/01/18 14:37:11;;;;;;;12.75;5.28;;;;;;;;;;5059124;28;20524;-72
2022/01/18 14:40:01;;;;;;;7.82;4.97;;;;;;;;;;5059954;28;20056;-78
2022/01/18 14:42:39;;;;;;;9.57;4.95;;;;;;;;;;5055140;28;20267;-80
2022/01/18 14:47:40;;;;;;;13.23;5.75;;;;;;;;;;5060129;28;20150;-84
2022/01/18 14:50:10;;;;;;;9.82;4.75;;;;;;;;;;5058494;28;20410;-80
2022/01/18 14:52:38;;;;;;;9.43;5.25;;;;;;;;;;5059910;28;20099;-81
2022/01/18 14:55:08;;;;;;;11.45;5.55;;;;;;;;;;5059033;28;20417;-73
2022/01/18 14:57:37;;;;;;;9.70;5.03;;;;;;;;;;5056870;28;20044;-78
2022/01/18 15:00:07;;;;;;;9.68;5.68;;;;;;;;;;5057277;28;20457;-75
2022/01/18 15:02:34;;;;;;;10.10;5.40;;;;;;;;;;5055065;28;20101;-78
2022/01/18 15:05:08;;;;;;;9.20;5.93;;;;;;;;;;5059729;28;20092;-80
2022/01/18 15:07:35;;;;;;;10.35;6.50;;;;;;;;;;5060759;28;20056;-73
2022/01/18 15:10:06;;;;;;;9.73;4.88;;;;;;;;;;5060691;28;20044;-80
2022/01/18 15:12:37;;;;;;;9.38;5.18;;;;;;;;;;5058823;28;20342;-82
2022/01/18 15:15:04;;;;;;;10.32;5.30;;;;;;;;;;5058407;28;21220;-84
2022/01/18 15:17:30;;;;;;;10.10;5.22;;;;;;;;;;5059029;28;20095;-74
2022/01/18 15:19:57;;;;;;;15.32;5.70;;;;;;;;;;5059574;28;20057;-79
2022/01/18 15:22:23;;;;;;;7.97;5.03;;;;;;;;;;5052263;28;20052;-73
2022/01/18 15:24:49;;;;;;;9.07;5.07;;;;;;;;;;5056616;28;20053;-74
2022/01/18 15:27:16;;;;;;;10.18;5.00;;;;;;;;;;5055989;28;20560;-77
2022/01/18 15:29:43;;;;;;;9.85;6.00;;;;;;;;;;5056060;28;20407;-75
2022/01/18 15:32:09;;;;;;;8.88;5.03;;;;;;;;;;5053953;28;20063;-83
2022/01/18 15:34:36;;;;;;;7.97;4.88;;;;;;;;;;5057670;28;20040;-78
2022/01/18 15:37:02;;;;;;;9.82;5.68;;;;;;;;;;5055930;28;20410;-81
2022/01/18 15:39:28;;;;;;;7.90;5.03;;;;;;;;;;5056322;28;20044;-79
2022/01/18 15:41:54;;;;;;;8.25;5.10;;;;;;;;;;5055037;28;20208;-73
2022/01/18 15:44:20;;;;;;;9.05;5.30;;;;;;;;;;5058696;28;20048;-75
2022/01/18 15:46:46;;;;;;;9.75;5.53;;;;;;;;;;5057188;28;20144;-74
2022/01/18 15:49:13;;;;;;;7.10;4.75;;;;;;;;;;5040352;28;20324;-78
2022/01/18 15:51:39;;;;;;;8.65;5.30;;;;;;;;;;5058033;28;20049;-77
2022/01/18 15:54:05;;;;;;;10.48;6.10;;;;;;;;;;5056875;28;20060;-78
2022/01/18 15:56:33;;;;;;;17.30;7.40;;;;;;;;;;5058281;28;20053;-75
2022/01/18 15:58:59;;;;;;;14.30;6.75;;;;;;;;;;5044394;28;20094;-78
2022/01/18 16:01:26;;;;;;;16.73;8.40;;;;;;;;;;5059601;28;20048;-73
2022/01/18 16:03:53;;;;;;;14.05;5.85;;;;;;;;;;5057098;28;20090;-86
2022/01/18 16:06:20;;;;;;;13.93;5.82;;;;;;;;;;5060670;28;20198;-75
2022/01/18 16:08:48;;;;;;;10.88;5.85;;;;;;;;;;5058397;28;20059;-71
2022/01/18 16:11:17;;;;;;;10.65;5.22;;;;;;;;;;5057786;28;20056;-74